General Mitchell International Airport
KMKE : now visible

Airfield :











YOU CAN JOIN US ON...

 
LOGIN :

Register | Disclaimer

   EN    FR    IT 

 









Legend :    VFR   Marginal VFR   IFR   Intensive IFR   Very Intensive IFR
Visi :
Ceiling :
>= 8 km
>= 3000ft
5 to 8 km
1000 to 3000 ft
1500m to 5 km
500 to 1000 ft
800 to 1500m
200 to 500 ft
< 800m
< 200 ft
Symbols :   Thunderstorms  Fog  Heavy snow  Heavy precipitations  Wind > 20 kt






- Airport Elevation : 723 ft
- IATA code : MKE


KMKE - General Mitchell International

CURRENT METAR :
  • 280952Z 32003KT 10SM FEW250 M01/M04 A2988 RMK AO2 SLP125 T10111039

EXPIRED METARs :
  • 280852Z 00000KT 10SM CLR M01/M04 A2987 RMK AO2 SLP122 T10111039 53010
  • 280752Z 30003KT 10SM FEW250 M01/M04 A2986 RMK AO2 SLP120 T10111039

TAF KMKE
Valid from the 28 at 09:00 until the 29 at 12:00 UTC


280912Z 2809/2912 31005KT P6SM SCT250
FM281600 20005KT P6SM BKN150
FM281800 20009KT P6SM BKN120
FM290300 19010KT P6SM BKN045
KZAU FIR / North America



MET'MAP, your aeronautical weather chart ! - Copyright ORBIFLY December 2007 - Disclaimer

ORBIFLY MET'MAP TEAM :

Programming & Development : Alexandra Zaïnal
Original concept : Baudouin d'Aumeries
Technical & hardware support : Manuel Goepfert
Assistance : Marc-Olivier Méhu




SOURCES & CREDITS :

   NOAA       Earth
Advisory